Time;durP1;ratioP1;P1;durP2;ratioP2;P2;SDS_P1;SDS_P2;PMS_P1;PMS_P2;Temp;Humidity;BMP_temperature;BMP_pressure;BME280_temperature;BME280_humidity;BME280_pressure;Samples;Min_cycle;Max_cycle;Signal;HPM_P1;HPM_P2
2023/01/31 00:00:13;;;;;;;16.73;2.50;;;;;;;0.21;100.00;96447.47;10325795;28;20213;-77
2023/01/31 00:05:14;;;;;;;13.77;3.13;;;;;;;0.18;100.00;96437.34;10327792;28;20218;-76
2023/01/31 00:10:15;;;;;;;11.07;2.67;;;;;;;0.17;100.00;96441.69;10333858;28;20198;-75
2023/01/31 00:15:17;;;;;;;16.63;3.10;;;;;;;0.12;100.00;96424.88;10333808;28;20186;-77
2023/01/31 00:20:17;;;;;;;15.47;2.40;;;;;;;0.19;100.00;96407.28;10333259;28;20194;-76
2023/01/31 00:25:18;;;;;;;9.97;2.40;;;;;;;0.17;100.00;96407.41;10333969;28;20643;-76
2023/01/31 00:30:18;;;;;;;9.83;2.73;;;;;;;0.15;100.00;96428.09;10332582;28;20217;-77
2023/01/31 00:35:19;;;;;;;20.23;3.10;;;;;;;0.12;100.00;96435.19;10316206;28;20209;-76
2023/01/31 00:40:19;;;;;;;8.63;1.93;;;;;;;0.03;100.00;96440.91;10332746;28;20213;-77
2023/01/31 00:45:20;;;;;;;11.53;2.63;;;;;;;-0.09;100.00;96465.69;10334155;28;20216;-76
2023/01/31 00:50:20;;;;;;;11.97;1.83;;;;;;;-0.22;100.00;96496.53;10314858;28;20333;-75
2023/01/31 00:55:21;;;;;;;4.13;1.57;;;;;;;-0.50;100.00;96485.38;10312936;28;20194;-76
2023/01/31 01:00:21;;;;;;;5.23;1.00;;;;;;;-0.61;100.00;96485.22;10332051;28;20602;-76
2023/01/31 01:05:22;;;;;;;2.83;0.80;;;;;;;-0.68;100.00;96501.94;10314572;28;20224;-77
2023/01/31 01:10:22;;;;;;;1.20;0.70;;;;;;;-0.76;100.00;96517.81;10331698;28;20631;-76
2023/01/31 01:15:23;;;;;;;0.77;0.70;;;;;;;-0.84;100.00;96538.00;10314208;28;20190;-77
2023/01/31 01:20:23;;;;;;;1.80;0.60;;;;;;;-0.85;100.00;96544.91;10330308;28;20201;-76
2023/01/31 01:25:23;;;;;;;9.73;0.70;;;;;;;-0.88;100.00;96533.97;10331663;28;20766;-77
2023/01/31 01:30:24;;;;;;;3.33;1.20;;;;;;;-0.89;100.00;96540.84;10329998;28;20655;-77
2023/01/31 01:35:24;;;;;;;1.53;0.93;;;;;;;-0.88;100.00;96545.09;10331451;28;20215;-77
2023/01/31 01:40:33;;;;;;;1.90;0.90;;;;;;;-0.86;100.00;96565.56;10330213;28;20214;-76
2023/01/31 01:45:33;;;;;;;1.60;1.00;;;;;;;-0.84;100.00;96564.56;10312829;28;20242;-77
2023/01/31 01:50:43;;;;;;;2.00;1.20;;;;;;;-0.75;100.00;96571.75;10330539;28;20306;-75
2023/01/31 01:55:51;;;;;;;4.60;1.90;;;;;;;-0.70;100.00;96580.91;10329745;28;20586;-77
2023/01/31 02:00:52;;;;;;;4.47;1.93;;;;;;;-0.64;100.00;96578.81;10311159;28;20200;-77
2023/01/31 02:05:55;;;;;;;11.33;2.73;;;;;;;-0.61;100.00;96583.78;10312190;28;20687;-76
2023/01/31 02:11:17;;;;;;;10.50;3.17;;;;;;;-0.57;100.00;96590.41;10311035;28;20605;-76
2023/01/31 02:16:18;;;;;;;16.63;4.07;;;;;;;-0.49;100.00;96569.38;10311763;28;20309;-76
2023/01/31 02:21:55;;;;;;;18.33;4.50;;;;;;;-0.46;100.00;96588.94;10328763;28;20281;-76
2023/01/31 02:27:33;;;;;;;24.33;4.00;;;;;;;-0.34;100.00;96570.19;10276564;28;20612;-76
2023/01/31 02:32:43;;;;;;;14.27;3.57;;;;;;;-0.30;100.00;96586.28;10310139;28;20229;-76
2023/01/31 02:38:03;;;;;;;17.30;4.03;;;;;;;-0.27;100.00;96604.13;10310162;28;20732;-76
2023/01/31 02:43:24;;;;;;;10.67;2.37;;;;;;;-0.23;100.00;96606.41;10295275;28;20558;-76
2023/01/31 02:48:58;;;;;;;18.53;2.80;;;;;;;-0.32;100.00;96599.25;10294402;28;20193;-76
2023/01/31 02:54:08;;;;;;;13.93;3.10;;;;;;;-0.35;100.00;96614.88;10294041;28;20230;-76
2023/01/31 02:59:25;;;;;;;17.80;2.50;;;;;;;-0.23;100.00;96610.72;10310098;28;20194;-75
2023/01/31 03:04:30;;;;;;;12.83;2.47;;;;;;;-0.22;100.00;96628.63;10295043;28;20225;-76
2023/01/31 03:10:09;;;;;;;15.30;2.87;;;;;;;-0.26;100.00;96641.78;10309081;28;20215;-76
2023/01/31 03:21:13;;;;;;;15.57;3.17;;;;;;;-0.19;100.00;96649.06;10296757;28;20303;-75
2023/01/31 03:26:15;;;;;;;10.57;3.00;;;;;;;-0.23;100.00;96652.75;10292549;28;20591;-76
2023/01/31 03:31:30;;;;;;;15.57;3.77;;;;;;;-0.42;100.00;96637.56;10293198;28;20206;-76
2023/01/31 03:36:55;;;;;;;17.90;3.40;;;;;;;-0.45;100.00;96644.63;10308398;28;20722;-75
2023/01/31 03:42:23;;;;;;;17.00;3.30;;;;;;;-0.45;100.00;96663.47;10307793;28;20225;-76
2023/01/31 03:47:34;;;;;;;17.73;3.60;;;;;;;-0.46;100.00;96666.97;10308052;28;20201;-75
2023/01/31 03:52:38;;;;;;;13.20;3.00;;;;;;;-0.47;100.00;96674.78;10292295;28;20238;-75
2023/01/31 03:57:42;;;;;;;10.83;3.40;;;;;;;-0.33;100.00;96686.84;10292158;28;20190;-76
2023/01/31 04:02:42;;;;;;;12.10;2.90;;;;;;;-0.30;100.00;96690.06;10283015;28;20218;-76
2023/01/31 04:07:44;;;;;;;9.67;3.10;;;;;;;-0.31;100.00;96696.13;10261952;28;20252;-75
2023/01/31 04:12:52;;;;;;;12.90;3.00;;;;;;;-0.38;100.00;96697.41;10245927;28;20194;-75
2023/01/31 04:17:53;;;;;;;13.27;2.93;;;;;;;-0.42;100.00;96717.31;10277909;28;20197;-76
2023/01/31 04:22:53;;;;;;;19.30;3.30;;;;;;;-0.33;100.00;96718.56;10278152;28;20229;-76
2023/01/31 04:27:53;;;;;;;12.03;3.00;;;;;;;-0.30;100.00;96712.41;10279987;28;20199;-77
2023/01/31 04:32:54;;;;;;;17.27;3.37;;;;;;;-0.23;100.00;96717.09;10278251;28;20313;-76
2023/01/31 04:37:54;;;;;;;16.37;2.80;;;;;;;-0.23;100.00;96700.81;10260721;28;20218;-75
2023/01/31 04:42:55;;;;;;;14.70;2.77;;;;;;;-0.30;100.00;96705.50;10278447;28;20223;-75
2023/01/31 04:47:55;;;;;;;11.90;3.00;;;;;;;-0.24;100.00;96712.03;10260125;28;20202;-75
2023/01/31 04:52:55;;;;;;;13.53;2.63;;;;;;;-0.28;100.00;96711.38;10281159;28;20332;-76
2023/01/31 04:57:56;;;;;;;10.83;2.37;;;;;;;-0.24;100.00;96705.13;10284349;28;20201;-75
2023/01/31 05:02:56;;;;;;;20.77;2.60;;;;;;;-0.26;100.00;96717.28;10288903;28;20233;-75
2023/01/31 05:07:56;;;;;;;29.10;3.13;;;;;;;-0.31;100.00;96713.31;10291371;28;20202;-76
2023/01/31 05:12:57;;;;;;;9.07;2.43;;;;;;;-0.25;100.00;96712.94;10291837;28;20190;-76
2023/01/31 05:18:03;;;;;;;13.37;3.00;;;;;;;-0.30;100.00;96715.78;10290804;28;20290;-76
2023/01/31 05:23:03;;;;;;;15.30;3.40;;;;;;;-0.20;100.00;96709.22;10290789;28;20222;-76
2023/01/31 05:28:04;;;;;;;16.63;3.10;;;;;;;-0.23;100.00;96709.38;10290877;28;20648;-75
2023/01/31 05:33:05;;;;;;;18.97;3.57;;;;;;;-0.21;100.00;96717.84;10290537;28;20189;-76
2023/01/31 05:38:05;;;;;;;13.97;2.60;;;;;;;-0.18;100.00;96724.56;10290397;28;20680;-76
2023/01/31 05:43:05;;;;;;;19.77;2.77;;;;;;;-0.27;100.00;96714.81;10290857;28;20218;-75
2023/01/31 05:48:06;;;;;;;9.70;2.60;;;;;;;-0.26;100.00;96717.28;10272272;28;20195;-76
2023/01/31 05:53:08;;;;;;;18.93;3.73;;;;;;;-0.24;100.00;96709.47;10273249;28;20253;-76
2023/01/31 05:58:08;;;;;;;15.67;2.80;;;;;;;-0.22;100.00;96712.78;10289519;28;20197;-76
2023/01/31 06:03:09;;;;;;;12.53;2.73;;;;;;;-0.19;100.00;96707.44;10289329;28;20233;-76
2023/01/31 06:08:09;;;;;;;11.23;3.27;;;;;;;-0.19;100.00;96730.63;10289538;28;20187;-76
2023/01/31 06:13:10;;;;;;;14.50;2.77;;;;;;;-0.18;100.00;96714.25;10289421;28;20715;-75
2023/01/31 06:18:10;;;;;;;11.93;3.10;;;;;;;-0.21;100.00;96740.19;10288706;28;20296;-75
2023/01/31 06:23:11;;;;;;;14.70;3.40;;;;;;;-0.23;100.00;96752.28;10321612;28;20217;-76
2023/01/31 06:28:11;;;;;;;14.53;3.40;;;;;;;-0.30;100.00;96746.69;10300480;28;20205;-75
2023/01/31 06:33:12;;;;;;;27.37;4.03;;;;;;;-0.22;100.00;96738.53;10295856;28;20183;-76
2023/01/31 06:38:12;;;;;;;8.60;3.10;;;;;;;-0.28;100.00;96733.72;10296457;28;20337;-76
2023/01/31 06:43:12;;;;;;;17.57;3.10;;;;;;;-0.17;100.00;96748.56;10288202;28;20557;-76
2023/01/31 06:48:13;;;;;;;12.23;2.60;;;;;;;-0.25;100.00;96756.72;10285474;28;20276;-76
2023/01/31 06:53:33;;;;;;;8.37;2.70;;;;;;;-0.23;100.00;96748.00;10280189;28;20230;-76
2023/01/31 06:58:34;;;;;;;18.13;4.13;;;;;;;-0.16;100.00;96752.78;10288511;28;20664;-76
2023/01/31 07:03:34;;;;;;;14.63;4.40;;;;;;;-0.12;100.00;96749.94;10271984;28;20237;-77
2023/01/31 07:08:36;;;;;;;10.87;3.60;;;;;;;-0.13;100.00;96768.88;10288524;28;20357;-77
2023/01/31 07:13:36;;;;;;;12.17;2.60;;;;;;;-0.10;100.00;96775.59;10288585;28;20202;-77
2023/01/31 07:18:36;;;;;;;11.43;2.60;;;;;;;-0.06;100.00;96780.50;10287475;28;20288;-76
2023/01/31 07:23:37;;;;;;;12.90;2.73;;;;;;;-0.06;100.00;96775.34;10287844;28;20225;-77
2023/01/31 07:28:37;;;;;;;11.63;3.13;;;;;;;0.10;100.00;96769.28;10287728;28;20206;-76
2023/01/31 07:33:38;;;;;;;17.13;2.97;;;;;;;0.24;100.00;96765.91;10298191;28;20202;-77
2023/01/31 07:38:39;;;;;;;12.60;2.13;;;;;;;0.39;100.00;96772.72;10304654;28;20221;-77
2023/01/31 07:43:39;;;;;;;9.90;2.23;;;;;;;0.49;100.00;96765.25;10327774;28;20251;-76
2023/01/31 07:48:40;;;;;;;13.47;1.93;;;;;;;0.44;100.00;96777.59;10327858;28;20336;-77
2023/01/31 07:53:41;;;;;;;12.77;2.70;;;;;;;0.50;100.00;96770.31;10327693;28;20229;-76
2023/01/31 07:58:42;;;;;;;6.80;1.97;;;;;;;0.37;100.00;96771.97;10315303;28;20204;-78
2023/01/31 08:03:42;;;;;;;8.77;2.20;;;;;;;0.31;100.00;96772.34;10326393;28;20354;-77
2023/01/31 08:08:44;;;;;;;19.17;3.27;;;;;;;0.29;100.00;96767.28;10326309;28;20347;-77
2023/01/31 08:13:44;;;;;;;12.80;2.30;;;;;;;0.26;100.00;96775.19;10324992;28;20220;-76
2023/01/31 08:18:45;;;;;;;10.60;2.43;;;;;;;0.45;100.00;96764.59;10325437;28;20311;-77
2023/01/31 08:23:46;;;;;;;8.17;2.40;;;;;;;1.04;100.00;96764.44;10339687;28;20299;-77
2023/01/31 08:28:47;;;;;;;10.73;2.33;;;;;;;1.00;100.00;96752.66;10312044;28;20196;-77
2023/01/31 08:33:50;;;;;;;12.70;2.43;;;;;;;0.97;100.00;96728.81;10327393;28;20197;-77
2023/01/31 08:38:50;;;;;;;10.67;2.10;;;;;;;0.71;100.00;96744.16;10315426;28;20217;-76
2023/01/31 08:43:51;;;;;;;10.97;2.40;;;;;;;0.84;100.00;96747.63;10333078;28;20217;-76
2023/01/31 08:48:52;;;;;;;7.03;2.47;;;;;;;0.79;100.00;96748.84;10332472;28;20668;-77
2023/01/31 08:53:52;;;;;;;6.60;2.00;;;;;;;0.82;100.00;96739.16;10311037;28;20259;-77
2023/01/31 08:58:53;;;;;;;8.60;2.60;;;;;;;0.78;100.00;96747.16;10291441;28;20190;-76
2023/01/31 09:03:55;;;;;;;12.50;2.97;;;;;;;0.70;100.00;96758.81;10292075;28;20229;-77
2023/01/31 09:08:57;;;;;;;17.03;3.50;;;;;;;0.96;100.00;96751.19;10291486;28;20198;-76
2023/01/31 09:13:57;;;;;;;7.70;2.27;;;;;;;1.04;100.00;96725.75;10292155;28;20284;-77
2023/01/31 09:18:57;;;;;;;7.43;2.33;;;;;;;0.93;100.00;96712.69;10291349;28;20199;-76
2023/01/31 09:24:01;;;;;;;11.43;2.10;;;;;;;1.34;100.00;96706.63;10290939;28;20215;-76
2023/01/31 09:29:01;;;;;;;9.67;2.63;;;;;;;1.31;100.00;96706.84;10290989;28;20197;-77
2023/01/31 09:34:01;;;;;;;8.30;2.10;;;;;;;1.83;100.00;96706.94;10290908;28;20206;-77
2023/01/31 09:39:02;;;;;;;16.23;2.53;;;;;;;2.46;100.00;96663.88;10289681;28;20214;-77
2023/01/31 09:44:30;;;;;;;9.87;2.27;;;;;;;2.29;100.00;96665.84;10290432;28;20326;-76
2023/01/31 09:49:36;;;;;;;10.57;3.90;;;;;;;3.17;96.49;96635.53;10290731;28;20281;-76
2023/01/31 09:54:39;;;;;;;11.13;2.13;;;;;;;3.53;93.19;96615.63;10272560;28;20235;-77
2023/01/31 10:00:03;;;;;;;10.43;2.23;;;;;;;3.10;92.09;96616.22;10272017;28;20226;-77
2023/01/31 10:05:17;;;;;;;19.50;6.23;;;;;;;3.40;95.02;96641.63;10289876;28;20222;-77
2023/01/31 10:10:50;;;;;;;11.77;2.37;;;;;;;2.48;92.67;96624.03;10289037;28;20305;-77
2023/01/31 10:15:58;;;;;;;12.17;2.17;;;;;;;3.53;92.01;96625.97;10295577;28;20194;-78
2023/01/31 10:21:05;;;;;;;9.87;1.57;;;;;;;3.00;91.86;96626.41;10272155;28;20190;-77
2023/01/31 10:26:10;;;;;;;13.60;2.50;;;;;;;2.44;93.87;96640.69;10288222;28;20297;-76
2023/01/31 10:31:29;;;;;;;11.53;2.47;;;;;;;1.94;95.24;96638.09;10270818;28;20199;-77
2023/01/31 10:36:54;;;;;;;7.23;1.80;;;;;;;1.96;95.94;96622.50;10287997;28;20584;-76
2023/01/31 10:42:02;;;;;;;9.17;2.40;;;;;;;1.67;97.50;96624.47;10288133;28;20206;-76
2023/01/31 10:47:13;;;;;;;12.93;2.07;;;;;;;1.82;98.74;96653.59;10287927;28;20321;-77
2023/01/31 10:52:48;;;;;;;9.07;1.87;;;;;;;1.51;98.84;96635.00;10287065;28;20234;-76
2023/01/31 10:57:49;;;;;;;5.87;2.07;;;;;;;1.34;99.13;96626.63;10270619;28;20666;-76
2023/01/31 11:02:50;;;;;;;10.40;2.20;;;;;;;1.54;100.00;96617.56;10287314;28;20273;-76
2023/01/31 11:07:51;;;;;;;7.70;1.87;;;;;;;1.58;99.27;96619.00;10314608;28;20280;-75
2023/01/31 11:13:00;;;;;;;6.47;1.83;;;;;;;1.50;98.04;96610.13;10289398;28;20194;-76
2023/01/31 11:18:01;;;;;;;10.93;2.70;;;;;;;1.43;98.68;96596.81;10269505;28;20253;-75
2023/01/31 11:23:04;;;;;;;11.67;2.67;;;;;;;1.80;98.07;96583.16;10269709;28;20225;-76
2023/01/31 11:28:18;;;;;;;7.93;2.17;;;;;;;1.66;98.50;96569.44;10286669;28;20237;-75
2023/01/31 11:33:36;;;;;;;6.13;2.60;;;;;;;1.60;98.49;96570.66;10266176;28;20309;-75
2023/01/31 11:38:37;;;;;;;11.97;2.80;;;;;;;1.81;98.80;96561.56;10317482;28;20641;-76
2023/01/31 11:43:37;;;;;;;11.73;2.60;;;;;;;1.51;97.20;96540.31;10291471;28;20226;-76
2023/01/31 11:48:42;;;;;;;8.27;1.97;;;;;;;1.65;98.76;96557.44;10286492;28;20195;-76
2023/01/31 11:53:44;;;;;;;11.63;2.70;;;;;;;1.32;100.00;96573.47;10286022;28;20673;-76
2023/01/31 11:58:46;;;;;;;11.60;3.17;;;;;;;1.42;100.00;96567.59;10269199;28;20253;-76
2023/01/31 12:04:01;;;;;;;12.37;5.03;;;;;;;1.28;100.00;96557.34;10273870;28;20360;-76
2023/01/31 12:09:04;;;;;;;7.50;2.80;;;;;;;1.50;100.00;96555.91;10237215;29;20700;-76
2023/01/31 12:14:04;;;;;;;8.93;3.00;;;;;;;1.25;100.00;96554.97;10256056;28;20668;-75
2023/01/31 12:19:11;;;;;;;8.53;3.20;;;;;;;1.32;100.00;96542.50;10294008;28;20293;-75
2023/01/31 12:24:23;;;;;;;9.17;3.10;;;;;;;1.33;100.00;96534.66;10293916;28;20305;-75
2023/01/31 12:29:26;;;;;;;13.37;3.87;;;;;;;1.28;100.00;96541.06;10294090;28;20237;-76
2023/01/31 12:34:54;;;;;;;18.27;3.70;;;;;;;1.41;100.00;96518.66;10292874;28;20198;-76
2023/01/31 12:40:03;;;;;;;14.07;3.40;;;;;;;1.35;100.00;96507.00;10275269;28;20222;-76
2023/01/31 12:45:34;;;;;;;15.87;4.20;;;;;;;1.28;100.00;96499.78;10292302;28;20261;-75
2023/01/31 12:50:47;;;;;;;10.20;3.70;;;;;;;1.40;100.00;96496.34;10243054;28;20261;-75
2023/01/31 12:56:10;;;;;;;16.17;4.30;;;;;;;1.41;100.00;96490.28;10275086;28;20202;-76
2023/01/31 13:01:24;;;;;;;17.00;5.57;;;;;;;1.15;100.00;96479.13;10274588;28;20198;-76
2023/01/31 13:06:29;;;;;;;15.57;5.33;;;;;;;0.67;100.00;96465.09;10274535;28;20218;-77
2023/01/31 13:11:43;;;;;;;27.83;13.57;;;;;;;0.88;100.00;96452.50;10274968;28;20213;-77
2023/01/31 13:16:45;;;;;;;12.90;4.63;;;;;;;0.83;100.00;96458.94;10273174;28;20198;-77
2023/01/31 13:21:48;;;;;;;10.70;5.03;;;;;;;0.96;100.00;96446.84;10274178;28;20194;-77
2023/01/31 13:26:52;;;;;;;10.47;4.73;;;;;;;1.00;100.00;96457.78;10273911;28;20227;-76
2023/01/31 13:31:59;;;;;;;14.33;4.53;;;;;;;0.87;100.00;96458.63;10290702;28;20208;-76
2023/01/31 13:37:06;;;;;;;11.83;4.10;;;;;;;0.90;100.00;96436.94;10273548;28;20213;-75
2023/01/31 13:42:11;;;;;;;13.43;3.90;;;;;;;0.83;100.00;96421.06;10291138;28;20221;-76
2023/01/31 13:47:25;;;;;;;9.93;4.53;;;;;;;0.71;100.00;96402.06;10330147;28;20227;-75
2023/01/31 13:52:33;;;;;;;7.23;2.50;;;;;;;0.68;100.00;96389.41;10312890;28;20242;-76
2023/01/31 13:57:46;;;;;;;10.37;5.23;;;;;;;0.47;100.00;96403.72;10289302;28;20650;-76
2023/01/31 14:03:12;;;;;;;16.70;6.00;;;;;;;0.42;100.00;96383.41;10292450;28;20722;-76
2023/01/31 14:08:31;;;;;;;17.20;6.73;;;;;;;0.53;100.00;96391.22;10294534;28;20194;-76
2023/01/31 14:13:34;;;;;;;16.13;4.27;;;;;;;0.55;100.00;96401.44;10272459;28;20202;-76
2023/01/31 14:18:40;;;;;;;13.67;4.43;;;;;;;0.55;100.00;96387.75;10289360;28;20200;-76
2023/01/31 14:23:45;;;;;;;16.33;4.70;;;;;;;0.50;100.00;96395.78;10272214;28;20708;-76
2023/01/31 14:28:46;;;;;;;9.10;2.97;;;;;;;0.52;100.00;96404.22;10288775;28;20278;-76
2023/01/31 14:33:47;;;;;;;13.80;4.00;;;;;;;0.53;100.00;96393.00;10312667;28;20220;-76
2023/01/31 14:39:15;;;;;;;14.10;3.77;;;;;;;0.50;100.00;96398.34;10292553;28;20304;-76
2023/01/31 14:44:43;;;;;;;8.53;3.37;;;;;;;0.47;100.00;96380.53;10271130;28;20227;-76
2023/01/31 14:50:10;;;;;;;18.17;5.53;;;;;;;0.43;100.00;96404.84;10313663;28;20197;-76
2023/01/31 14:55:27;;;;;;;11.27;4.60;;;;;;;0.38;100.00;96376.81;10328397;28;20288;-76
2023/01/31 15:00:30;;;;;;;14.30;3.90;;;;;;;0.42;100.00;96372.28;10310289;28;20256;-74
2023/01/31 15:05:30;;;;;;;12.30;4.60;;;;;;;0.38;100.00;96386.28;10310923;28;20606;-76
2023/01/31 15:10:52;;;;;;;10.83;3.90;;;;;;;0.50;100.00;96377.75;10327175;28;20198;-76
2023/01/31 15:15:53;;;;;;;5.57;3.17;;;;;;;0.53;100.00;96391.22;10323177;28;20518;-77
2023/01/31 15:21:00;;;;;;;8.90;3.80;;;;;;;0.54;100.00;96358.56;10305042;28;20264;-76
2023/01/31 15:26:01;;;;;;;9.20;4.13;;;;;;;0.52;100.00;96358.69;10308448;28;20276;-76
2023/01/31 15:31:15;;;;;;;8.80;4.13;;;;;;;0.53;100.00;96367.22;10309359;28;20196;-75
2023/01/31 15:36:27;;;;;;;7.93;3.97;;;;;;;0.50;100.00;96357.94;10325904;28;21015;-75
2023/01/31 15:41:39;;;;;;;7.20;4.00;;;;;;;0.39;100.00;96375.88;10309151;28;20210;-74
2023/01/31 15:46:42;;;;;;;10.67;4.97;;;;;;;0.35;100.00;96358.97;10309272;28;20225;-74
2023/01/31 15:51:42;;;;;;;10.13;4.33;;;;;;;0.34;100.00;96371.03;10326055;28;20295;-75
2023/01/31 15:56:43;;;;;;;7.70;4.17;;;;;;;0.35;100.00;96375.28;10308747;28;20265;-76
2023/01/31 16:01:51;;;;;;;6.77;3.43;;;;;;;0.36;100.00;96378.66;10326874;28;20194;-76
2023/01/31 16:06:52;;;;;;;16.60;7.80;;;;;;;0.31;100.00;96376.38;10308482;28;20226;-76
2023/01/31 16:11:53;;;;;;;6.67;4.40;;;;;;;0.31;100.00;96378.97;10326133;28;20722;-76
2023/01/31 16:16:56;;;;;;;10.87;4.83;;;;;;;0.32;100.00;96390.09;10326584;28;20200;-76
2023/01/31 16:21:57;;;;;;;8.33;3.87;;;;;;;0.35;100.00;96393.31;10291566;28;20201;-76
2023/01/31 16:27:07;;;;;;;5.73;3.53;;;;;;;0.40;100.00;96380.13;10325675;28;20222;-76
2023/01/31 16:32:25;;;;;;;5.70;4.53;;;;;;;0.35;100.00;96388.16;10305695;28;20212;-75
2023/01/31 16:37:38;;;;;;;5.47;4.53;;;;;;;0.42;100.00;96391.13;10308178;28;20204;-76
2023/01/31 16:42:40;;;;;;;5.87;4.27;;;;;;;0.46;100.00;96368.56;10311110;28;20228;-76
2023/01/31 16:47:45;;;;;;;6.57;3.83;;;;;;;0.49;100.00;96383.81;10287320;28;20201;-76
2023/01/31 16:52:47;;;;;;;4.83;3.93;;;;;;;0.45;100.00;96377.22;10310208;28;20244;-77
2023/01/31 16:57:47;;;;;;;3.80;3.13;;;;;;;0.45;100.00;96370.31;10332699;28;20618;-74
2023/01/31 17:02:48;;;;;;;6.33;4.07;;;;;;;0.47;100.00;96373.59;10313260;28;20297;-75
2023/01/31 17:07:48;;;;;;;5.43;4.10;;;;;;;0.48;100.00;96382.19;10285027;28;20209;-75
2023/01/31 17:12:49;;;;;;;5.87;3.73;;;;;;;0.50;100.00;96396.59;10276201;28;20836;-75
2023/01/31 17:17:50;;;;;;;4.00;2.93;;;;;;;0.61;100.00;96397.66;10293192;28;20186;-75
2023/01/31 17:22:50;;;;;;;8.27;4.77;;;;;;;0.69;100.00;96396.22;10292939;28;20248;-75
2023/01/31 17:27:51;;;;;;;7.17;3.47;;;;;;;0.77;100.00;96397.44;10293084;28;20565;-75
2023/01/31 17:32:52;;;;;;;7.17;4.33;;;;;;;0.79;100.00;96413.63;10301270;28;20194;-75
2023/01/31 17:37:52;;;;;;;4.23;2.87;;;;;;;0.84;100.00;96396.94;10310520;28;20528;-75
2023/01/31 17:42:56;;;;;;;3.93;3.07;;;;;;;0.83;100.00;96402.19;10311396;28;20211;-75
2023/01/31 17:47:57;;;;;;;8.60;4.23;;;;;;;0.94;100.00;96397.13;10304073;28;20187;-75
2023/01/31 17:53:00;;;;;;;7.53;4.03;;;;;;;0.95;100.00;96403.94;10293668;28;20215;-75
2023/01/31 17:58:00;;;;;;;3.57;3.10;;;;;;;0.88;100.00;96392.38;10311151;28;20197;-75
2023/01/31 18:03:00;;;;;;;4.00;3.03;;;;;;;0.90;100.00;96380.19;10305911;28;20211;-76
2023/01/31 18:08:01;;;;;;;8.10;3.83;;;;;;;1.05;100.00;96386.88;10309975;28;20190;-75
2023/01/31 18:13:01;;;;;;;4.67;3.83;;;;;;;0.98;100.00;96384.81;10330481;28;20201;-76
2023/01/31 18:18:02;;;;;;;5.00;2.80;;;;;;;1.09;100.00;96376.34;10312464;28;20193;-76
2023/01/31 18:23:03;;;;;;;3.97;3.33;;;;;;;1.19;100.00;96359.31;10329695;28;20214;-75
2023/01/31 18:28:03;;;;;;;3.77;2.90;;;;;;;1.28;100.00;96363.81;10329315;28;20571;-76
2023/01/31 18:33:04;;;;;;;4.30;3.33;;;;;;;1.27;100.00;96362.16;10329841;28;20332;-76
2023/01/31 18:38:05;;;;;;;4.30;2.93;;;;;;;1.31;100.00;96365.38;10328797;28;20217;-75
2023/01/31 18:43:05;;;;;;;3.93;2.90;;;;;;;1.39;100.00;96343.25;10329243;28;20243;-75
2023/01/31 18:48:06;;;;;;;5.23;3.40;;;;;;;1.45;100.00;96338.59;10328740;28;20285;-75
2023/01/31 18:53:06;;;;;;;3.43;2.60;;;;;;;1.48;100.00;96346.13;10328838;28;20261;-75
2023/01/31 18:58:07;;;;;;;3.43;2.93;;;;;;;1.42;100.00;96331.88;10328455;28;20194;-75
2023/01/31 19:03:07;;;;;;;3.40;2.40;;;;;;;1.57;100.00;96329.97;10327912;28;20240;-75
2023/01/31 19:08:07;;;;;;;5.17;2.93;;;;;;;1.55;100.00;96337.81;10328020;28;20221;-76
2023/01/31 19:13:08;;;;;;;4.63;3.13;;;;;;;1.55;100.00;96329.25;10309881;28;20200;-75
2023/01/31 19:18:08;;;;;;;3.23;2.47;;;;;;;1.53;100.00;96325.94;10309945;28;20197;-75
2023/01/31 19:23:08;;;;;;;3.27;1.93;;;;;;;1.58;100.00;96319.53;10327149;28;20217;-76
2023/01/31 19:28:09;;;;;;;14.40;7.33;;;;;;;1.62;100.00;96338.19;10327788;28;20198;-76
2023/01/31 19:33:10;;;;;;;9.13;6.37;;;;;;;1.59;100.00;96323.78;10313109;28;20189;-75
2023/01/31 19:38:11;;;;;;;9.33;7.43;;;;;;;1.65;100.00;96311.34;10303360;28;20214;-75
2023/01/31 19:43:11;;;;;;;5.63;3.73;;;;;;;1.65;100.00;96316.50;10304033;28;20281;-75
2023/01/31 19:48:12;;;;;;;9.13;5.30;;;;;;;1.67;100.00;96297.41;10303202;28;20194;-76
2023/01/31 19:53:12;;;;;;;5.73;4.97;;;;;;;1.61;100.00;96305.59;10307673;28;20221;-76
2023/01/31 19:58:12;;;;;;;4.10;3.70;;;;;;;1.58;100.00;96305.81;10305088;28;20193;-76
2023/01/31 20:03:13;;;;;;;2.57;2.37;;;;;;;1.62;100.00;96286.56;10304320;28;20739;-76
2023/01/31 20:08:14;;;;;;;2.47;2.10;;;;;;;1.69;100.00;96298.09;10303773;28;20245;-78
2023/01/31 20:13:14;;;;;;;2.40;2.20;;;;;;;1.80;100.00;96289.56;10306691;28;20187;-76
2023/01/31 20:18:15;;;;;;;2.67;1.90;;;;;;;1.80;100.00;96297.31;10303476;28;20309;-76
2023/01/31 20:23:15;;;;;;;3.27;2.47;;;;;;;1.64;100.00;96287.28;10309434;28;20206;-75
2023/01/31 20:28:16;;;;;;;3.13;2.83;;;;;;;1.55;100.00;96286.19;10291963;28;20256;-78
2023/01/31 20:33:17;;;;;;;2.97;2.67;;;;;;;1.43;100.00;96269.00;10311340;28;20186;-77
2023/01/31 20:38:18;;;;;;;5.77;4.13;;;;;;;1.41;100.00;96301.88;10305869;28;20217;-79
2023/01/31 20:43:20;;;;;;;18.63;7.90;;;;;;;1.46;100.00;96310.09;10312052;28;20681;-75
2023/01/31 20:48:21;;;;;;;2.40;2.20;;;;;;;1.49;100.00;96309.06;10312296;28;20220;-77
2023/01/31 20:53:21;;;;;;;3.07;2.43;;;;;;;1.53;100.00;96295.81;10310392;28;20233;-76
2023/01/31 20:58:23;;;;;;;3.37;2.70;;;;;;;1.45;100.00;96294.72;10308961;28;20652;-77
2023/01/31 21:03:24;;;;;;;3.80;2.50;;;;;;;1.30;100.00;96300.03;10309060;28;20206;-77
2023/01/31 21:08:25;;;;;;;30.60;13.17;;;;;;;1.22;100.00;96307.50;10289361;28;20190;-77
2023/01/31 21:13:30;;;;;;;4.63;4.10;;;;;;;1.02;100.00;96304.56;10282530;28;20216;-76
2023/01/31 21:18:33;;;;;;;3.70;3.27;;;;;;;1.03;100.00;96295.09;10316718;28;20201;-75
2023/01/31 21:23:34;;;;;;;4.47;3.33;;;;;;;1.02;100.00;96296.81;10328268;28;20213;-75
2023/01/31 21:28:35;;;;;;;3.93;3.00;;;;;;;0.91;100.00;96311.41;10327512;28;20236;-74
2023/01/31 21:33:35;;;;;;;3.20;2.87;;;;;;;0.79;100.00;96333.72;10309857;28;20198;-75
2023/01/31 21:38:36;;;;;;;4.30;3.67;;;;;;;0.74;100.00;96330.63;10327518;28;20695;-75
2023/01/31 21:43:40;;;;;;;4.13;3.50;;;;;;;0.82;100.00;96336.88;10288652;28;20653;-75
2023/01/31 21:48:41;;;;;;;4.03;3.30;;;;;;;0.91;100.00;96344.94;10286834;28;20739;-74
2023/01/31 21:53:41;;;;;;;3.87;3.30;;;;;;;0.90;100.00;96341.53;10291875;28;20635;-75
2023/01/31 21:58:43;;;;;;;4.60;3.30;;;;;;;1.03;100.00;96344.91;10291061;28;20190;-76
2023/01/31 22:03:46;;;;;;;3.97;2.87;;;;;;;1.06;100.00;96352.44;10291605;28;20229;-76
2023/01/31 22:08:55;;;;;;;4.43;2.90;;;;;;;1.35;100.00;96341.00;10290869;28;20245;-76
2023/01/31 22:13:56;;;;;;;4.00;3.47;;;;;;;1.51;100.00;96341.56;10290305;28;20192;-75
2023/01/31 22:18:57;;;;;;;6.47;3.37;;;;;;;1.49;100.00;96337.44;10290576;28;20679;-76
2023/01/31 22:24:00;;;;;;;6.10;3.17;;;;;;;1.58;100.00;96332.44;10291333;28;20774;-75
2023/01/31 22:29:01;;;;;;;6.63;3.50;;;;;;;1.63;100.00;96324.38;10290287;28;20194;-75
2023/01/31 22:34:03;;;;;;;6.03;3.50;;;;;;;1.60;100.00;96324.59;10290848;28;20190;-75
2023/01/31 22:39:04;;;;;;;7.07;3.90;;;;;;;1.67;100.00;96309.47;10289848;28;20269;-75
2023/01/31 22:44:04;;;;;;;7.20;4.20;;;;;;;1.74;100.00;96310.69;10290069;28;20218;-74
2023/01/31 22:49:04;;;;;;;9.63;4.33;;;;;;;1.69;100.00;96317.94;10289654;28;20669;-74
2023/01/31 22:54:05;;;;;;;12.50;4.13;;;;;;;1.70;100.00;96304.91;10289199;28;20266;-75
2023/01/31 22:59:05;;;;;;;7.97;4.73;;;;;;;1.71;100.00;96298.78;10289505;28;20197;-76
2023/01/31 23:04:07;;;;;;;11.43;4.63;;;;;;;1.72;100.00;96304.81;10289379;28;20218;-74
2023/01/31 23:09:08;;;;;;;6.57;3.80;;;;;;;1.70;100.00;96310.09;10289038;28;20190;-75
2023/01/31 23:14:08;;;;;;;8.67;4.57;;;;;;;1.67;100.00;96304.28;10289057;28;20190;-75
2023/01/31 23:19:09;;;;;;;13.10;4.93;;;;;;;1.73;100.00;96303.84;10289067;28;20936;-76
2023/01/31 23:24:11;;;;;;;9.77;4.20;;;;;;;1.78;100.00;96312.09;10288278;28;20265;-75
2023/01/31 23:29:11;;;;;;;13.03;4.70;;;;;;;1.79;100.00;96300.81;10288510;28;20281;-76